Flight Track Log - Related Links

Times and Time Zones

All times are in EDT time to prevent confusion due to time zone crossing. See the N762NC flight status page for this flight to view local times or setup timezone preferences in your user account.

Time Position Orientation Groundspeed Altitude Reporting Facility
EDT Latitude Longitude Course Direction KTS MPH feet Rate Location/Type
04:57PM 33.5836 -86.7169 61° Northeast 195 224 2,100  Level Atlanta Center
04:58PM 33.6039 -86.6453 71° East 252 290 3,800 1,934 Climbing Atlanta Center
04:59PM 33.5442 -86.6011 148° Southeast 286 329 6,000 2,427 Climbing Atlanta Center
04:59PM 33.5069 -86.5950 172° South 277 319 7,400 2,455 Climbing Atlanta Center
05:00PM 33.4322 -86.5703 165° South 283 326 9,600 1,900 Climbing Atlanta Center
05:01PM 33.3708 -86.5039 138° Southeast 283 326 11,200 1,200 Climbing Atlanta Center
05:02PM 33.3356 -86.3983 112° Southeast 309 356 12,000 1,250 Climbing Atlanta Center
05:03PM 33.2961 -86.2681 110° East 359 413 13,700 1,900 Climbing Atlanta Center
05:04PM 33.2714 -86.1308 102° East 401 461 15,800 2,000 Climbing Atlanta Center
05:05PM 33.2467 -85.9836 101° East 421 484 17,700 1,600 Climbing Atlanta Center
05:06PM 33.2217 -85.8417 102° East 434 499 19,000 650 Climbing Atlanta Center
05:07PM 33.1669 -85.7239 119° Southeast 408 470 19,000 50 Level Atlanta Center
05:08PM 33.1078 -85.6283 126° Southeast 385 443 19,100 50 Climbing Atlanta Center
05:09PM 33.0506 -85.5358 126° Southeast 361 415 19,100 -650 Level Atlanta Center
05:10PM 32.9975 -85.4308 121° Southeast 361 415 17,800 -1,550 Descending Atlanta Center
05:11PM 33.0069 -85.3144 84° East 342 394 16,000 -1,450 Descending Atlanta Center
05:12PM 33.0478 -85.1986 67° East 322 371 14,900 -1,600 Descending Atlanta Center
05:13PM 33.1028 -85.1300 46° Northeast 303 349 12,800 -1,450 Descending Atlanta Center
05:14PM 33.1703 -85.0539 43° Northeast 309 356 12,000 -750 Descending Atlanta Center
05:15PM 33.2250 -84.9650 54° Northeast 320 368 11,300 -1,000 Descending Atlanta Center
05:16PM 33.2819 -84.8861 49° Northeast 320 368 10,000 -1,050 Descending Atlanta Center
05:17PM 33.3450 -84.8444 29° Northeast 244 281 9,200 -1,050 Descending Atlanta Center
05:18PM 33.4200 -84.8503 356° North 244 281 7,900 -1,300 Descending Atlanta Center
05:19PM 33.4869 -84.8533 358° North 239 275 6,600 -1,350 Descending Atlanta Center
05:20PM 33.5536 -84.8364 12° North 234 269 5,200 -1,100 Descending Atlanta Center
05:21PM 33.6083 -84.8019 28° Northeast 229 264 4,400 -750 Descending Atlanta Center
05:22PM 33.6275 -84.7400 70° East 198 228 3,700 -564 Descending Atlanta Center
05:24PM 33.6333 -84.6500 86° East 194 223 3,000 -282 Descending Atlanta TRACON
05:25PM 33.6333 -84.5833 90° East 184 212 3,000 -400 Level Atlanta TRACON
05:26PM 33.6333 -84.5167 90° East 185 213 2,200 -800 Descending Atlanta TRACON
05:27PM 33.6333 -84.4667 90° East 140 161 1,400 -800 Descending Atlanta TRACON

Login

Don't have an account? Register now (free) for customized features, flight alerts, and more!